createdAt,value
2022-08-19T00:01:28.903Z,9.90
2022-08-19T00:03:58.214Z,9.88
2022-08-19T00:06:27.284Z,10.30
2022-08-19T00:08:54.702Z,10.52
2022-08-19T00:11:26.043Z,10.85
2022-08-19T00:13:53.727Z,10.40
2022-08-19T00:16:25.997Z,10.52
2022-08-19T00:18:54.401Z,10.32
2022-08-19T00:21:21.800Z,10.70
2022-08-19T00:23:50.723Z,10.23
2022-08-19T00:26:18.152Z,10.05
2022-08-19T00:28:45.567Z,10.68
2022-08-19T00:31:12.985Z,10.40
2022-08-19T00:33:40.380Z,10.82
2022-08-19T00:36:09.612Z,10.40
2022-08-19T00:38:38.325Z,10.02
2022-08-19T00:41:07.728Z,10.35
2022-08-19T00:43:35.371Z,9.75
2022-08-19T00:46:03.827Z,10.75
2022-08-19T00:48:31.267Z,10.68
2022-08-19T00:50:58.731Z,10.50
2022-08-19T00:53:28.039Z,11.00
2022-08-19T00:55:56.621Z,10.95
2022-08-19T00:58:28.523Z,11.47
2022-08-19T01:00:55.975Z,10.57
2022-08-19T01:03:23.814Z,10.77
2022-08-19T01:05:53.141Z,10.48
2022-08-19T01:08:21.125Z,10.98
2022-08-19T01:10:50.335Z,11.40
2022-08-19T01:13:17.948Z,11.23
2022-08-19T01:15:48.512Z,11.13
2022-08-19T01:18:17.089Z,10.93
2022-08-19T01:20:45.016Z,11.80
2022-08-19T01:23:14.208Z,11.88
2022-08-19T01:25:44.404Z,12.73
2022-08-19T01:28:16.677Z,11.83
2022-08-19T01:30:51.229Z,12.18
2022-08-19T01:33:18.760Z,13.02
2022-08-19T01:35:46.152Z,13.30
2022-08-19T01:38:24.456Z,13.20
2022-08-19T01:40:51.933Z,13.20
2022-08-19T01:43:19.907Z,14.02
2022-08-19T01:45:48.375Z,14.02
2022-08-19T01:48:15.988Z,12.85
2022-08-19T01:50:44.471Z,13.00
2022-08-19T01:53:13.290Z,13.47
2022-08-19T01:55:43.736Z,13.47
2022-08-19T01:58:13.362Z,13.65
2022-08-19T02:00:40.989Z,14.43
2022-08-19T02:03:10.283Z,15.37
2022-08-19T02:05:37.755Z,15.13
2022-08-19T02:08:05.364Z,15.20
2022-08-19T02:10:33.020Z,15.10
2022-08-19T02:13:01.812Z,15.77
2022-08-19T02:15:29.248Z,15.75
2022-08-19T02:17:56.620Z,15.68
2022-08-19T02:20:24.782Z,16.30
2022-08-19T02:22:52.484Z,15.95
2022-08-19T02:25:20.144Z,17.05
2022-08-19T02:27:47.666Z,16.98
2022-08-19T02:30:19.885Z,17.73
2022-08-19T02:32:47.296Z,17.63
2022-08-19T02:35:15.115Z,17.90
2022-08-19T02:38:00.332Z,18.02
2022-08-19T02:40:28.034Z,18.50
2022-08-19T02:42:55.516Z,18.63
2022-08-19T02:45:24.308Z,19.13
2022-08-19T02:47:51.673Z,19.63
2022-08-19T02:50:19.533Z,20.70
2022-08-19T02:52:47.030Z,19.55
2022-08-19T02:55:14.485Z,20.20
2022-08-19T02:57:42.861Z,20.73
2022-08-19T03:00:12.676Z,21.53
2022-08-19T03:02:41.472Z,22.43
2022-08-19T03:05:10.451Z,22.20
2022-08-19T03:07:38.082Z,22.02
2022-08-19T03:10:05.772Z,22.83
2022-08-19T03:12:33.215Z,22.88
2022-08-19T03:15:01.774Z,23.77
2022-08-19T03:17:29.233Z,23.95
2022-08-19T03:19:58.113Z,22.83
2022-08-19T03:22:26.333Z,22.48
2022-08-19T03:24:54.485Z,23.63
2022-08-19T03:27:22.188Z,23.15
2022-08-19T03:29:49.644Z,24.02
2022-08-19T03:32:32.520Z,24.35
2022-08-19T03:35:02.181Z,23.88
2022-08-19T03:37:29.673Z,23.48
2022-08-19T03:39:57.193Z,25.08
2022-08-19T03:42:38.793Z,23.75
2022-08-19T03:45:12.217Z,26.55
2022-08-19T03:47:39.768Z,26.02
2022-08-19T03:50:09.653Z,25.75
2022-08-19T03:52:37.453Z,24.80
2022-08-19T03:55:05.207Z,25.10
2022-08-19T03:57:33.318Z,25.33
2022-08-19T04:00:12.916Z,25.00
2022-08-19T04:02:41.451Z,25.42
2022-08-19T04:05:10.779Z,24.58
2022-08-19T04:07:38.225Z,26.42
2022-08-19T04:10:06.114Z,25.30
2022-08-19T04:12:38.655Z,24.33
2022-08-19T04:15:07.139Z,25.13
2022-08-19T04:17:34.744Z,25.50
2022-08-19T04:20:02.212Z,25.38
2022-08-19T04:22:35.926Z,25.23
2022-08-19T04:25:03.722Z,24.77
2022-08-19T04:27:32.114Z,23.95
2022-08-19T04:29:59.563Z,27.05
2022-08-19T04:32:27.085Z,25.25
2022-08-19T04:35:02.229Z,27.38
2022-08-19T04:37:46.277Z,26.27
2022-08-19T04:40:31.107Z,27.73
2022-08-19T04:42:58.533Z,25.65
2022-08-19T04:45:26.005Z,25.60
2022-08-19T04:47:58.812Z,27.80
2022-08-19T04:50:45.645Z,26.98
2022-08-19T04:53:14.399Z,25.70
2022-08-19T04:55:42.599Z,25.27
2022-08-19T04:58:09.990Z,27.27
2022-08-19T05:00:39.750Z,27.77
2022-08-19T05:03:07.957Z,27.90
2022-08-19T05:05:44.397Z,27.50
2022-08-19T05:08:15.387Z,27.67
2022-08-19T05:10:43.997Z,28.05
2022-08-19T05:13:11.854Z,27.35
2022-08-19T05:15:39.325Z,27.88
2022-08-19T05:18:24.457Z,28.55
2022-08-19T05:21:09.437Z,28.85
2022-08-19T05:23:38.175Z,29.17
2022-08-19T05:26:05.904Z,30.10
2022-08-19T05:28:33.295Z,30.30
2022-08-19T05:31:00.724Z,31.20
2022-08-19T05:33:28.564Z,32.92
2022-08-19T05:35:56.980Z,33.10
2022-08-19T05:38:24.452Z,34.10
2022-08-19T05:40:53.207Z,33.30
2022-08-19T05:43:20.793Z,34.03
2022-08-19T05:45:48.215Z,35.20
2022-08-19T05:48:16.079Z,34.45
2022-08-19T05:50:43.698Z,34.83
2022-08-19T05:53:11.121Z,35.07
2022-08-19T05:55:40.214Z,35.40
2022-08-19T05:58:09.327Z,34.28
2022-08-19T06:00:37.014Z,36.05
2022-08-19T06:03:09.636Z,35.00
2022-08-19T06:05:46.829Z,33.15
2022-08-19T06:08:20.121Z,32.60
2022-08-19T06:10:47.724Z,30.85
2022-08-19T06:13:16.550Z,30.80
2022-08-19T06:15:45.220Z,29.90
2022-08-19T06:18:12.640Z,27.65
2022-08-19T06:20:55.553Z,25.67
2022-08-19T06:23:24.307Z,23.33
2022-08-19T06:25:51.922Z,21.63
2022-08-19T06:28:21.167Z,22.13
2022-08-19T06:30:48.804Z,19.27
2022-08-19T06:33:16.229Z,18.15
2022-08-19T06:35:46.257Z,18.00
2022-08-19T06:38:13.673Z,20.85
2022-08-19T06:40:41.267Z,17.33
2022-08-19T06:43:09.488Z,17.13
2022-08-19T06:45:40.262Z,17.55
2022-08-19T06:48:08.313Z,15.80
2022-08-19T06:50:36.793Z,16.73
2022-08-19T06:53:07.265Z,16.30
2022-08-19T06:55:34.679Z,9.35
2022-08-19T06:58:04.603Z,11.75
2022-08-19T07:03:08.613Z,14.20
2022-08-19T07:05:39.952Z,11.40
2022-08-19T07:08:12.984Z,13.63
2022-08-19T07:10:44.240Z,12.43
2022-08-19T07:13:12.391Z,10.63
2022-08-19T07:15:40.000Z,12.02
2022-08-19T07:18:11.904Z,11.32
2022-08-19T07:20:40.061Z,11.68
2022-08-19T07:23:09.336Z,9.73
2022-08-19T07:25:43.496Z,10.50
2022-08-19T07:28:24.008Z,10.65
2022-08-19T07:30:52.880Z,9.63
2022-08-19T07:33:22.034Z,13.63
2022-08-19T07:35:49.618Z,10.10
2022-08-19T07:38:17.353Z,11.37
2022-08-19T07:40:46.796Z,11.35
2022-08-19T07:43:16.934Z,10.93
2022-08-19T07:45:45.399Z,9.10
2022-08-19T07:48:13.411Z,7.30
2022-08-19T07:50:42.314Z,9.00
2022-08-19T07:53:09.729Z,9.40
2022-08-19T07:55:42.454Z,8.75
2022-08-19T07:58:11.701Z,9.50
2022-08-19T08:00:39.723Z,9.35
2022-08-19T08:03:07.115Z,8.73
2022-08-19T08:05:52.009Z,6.80
2022-08-19T08:08:37.270Z,8.55
2022-08-19T08:11:12.340Z,7.70
2022-08-19T08:13:43.096Z,7.53
2022-08-19T08:16:13.890Z,7.40
2022-08-19T08:18:43.176Z,8.60
2022-08-19T08:21:10.722Z,7.25
2022-08-19T08:23:39.718Z,9.23
2022-08-19T08:26:07.348Z,8.60
2022-08-19T08:28:34.737Z,6.97
2022-08-19T08:31:02.222Z,6.22
2022-08-19T08:33:37.025Z,6.95
2022-08-19T08:36:06.810Z,7.07
2022-08-19T08:38:39.880Z,7.45
2022-08-19T08:41:20.330Z,9.20
2022-08-19T08:43:49.048Z,7.10
2022-08-19T08:46:31.291Z,8.05
2022-08-19T08:49:01.578Z,8.25
2022-08-19T08:51:34.959Z,8.75
2022-08-19T08:54:03.668Z,6.90
2022-08-19T08:56:33.171Z,10.30
2022-08-19T08:59:02.405Z,7.35
2022-08-19T09:01:30.781Z,5.78
2022-08-19T09:04:02.678Z,6.70
2022-08-19T09:06:34.238Z,7.25
2022-08-19T09:09:04.761Z,7.10
2022-08-19T09:11:47.962Z,5.72
2022-08-19T09:14:47.269Z,6.13
2022-08-19T09:17:08.897Z,6.57
2022-08-19T09:19:36.345Z,5.20
2022-08-19T09:22:03.886Z,6.25
2022-08-19T09:24:31.414Z,6.95
2022-08-19T09:27:00.183Z,7.32
2022-08-19T09:29:27.611Z,7.32
2022-08-19T09:31:55.089Z,5.78
2022-08-19T09:34:22.628Z,8.02
2022-08-19T09:36:54.560Z,5.18
2022-08-19T09:39:22.141Z,6.18
2022-08-19T09:41:50.811Z,4.82
2022-08-19T09:44:21.303Z,4.60
2022-08-19T09:46:49.765Z,5.47
2022-08-19T09:49:18.376Z,6.57
2022-08-19T09:51:50.332Z,7.55
2022-08-19T09:54:23.464Z,6.65
2022-08-19T09:56:51.828Z,6.00
2022-08-19T09:59:20.618Z,6.25
2022-08-19T10:01:48.275Z,5.10
2022-08-19T10:04:20.532Z,6.28
2022-08-19T10:06:51.842Z,5.75
2022-08-19T10:09:34.161Z,6.07
2022-08-19T10:12:02.845Z,5.38
2022-08-19T10:14:32.204Z,5.95
2022-08-19T10:17:01.246Z,5.97
2022-08-19T10:19:36.695Z,6.03
2022-08-19T10:22:05.163Z,5.40
2022-08-19T10:24:37.578Z,5.05
2022-08-19T10:27:06.620Z,6.65
2022-08-19T10:29:37.629Z,6.32
2022-08-19T10:32:14.323Z,6.38
2022-08-19T10:34:48.857Z,6.07
2022-08-19T10:37:23.469Z,6.32
2022-08-19T10:39:51.899Z,5.93
2022-08-19T10:42:19.870Z,7.05
2022-08-19T10:44:48.978Z,5.30
2022-08-19T10:47:25.586Z,4.90
2022-08-19T10:50:12.383Z,5.55
2022-08-19T10:52:40.034Z,6.10
2022-08-19T10:55:35.848Z,6.68
2022-08-19T10:58:03.345Z,5.88
2022-08-19T11:00:33.307Z,4.33
2022-08-19T11:03:00.738Z,5.55
2022-08-19T11:05:28.254Z,5.20
2022-08-19T11:07:56.926Z,4.25
2022-08-19T11:10:24.711Z,4.05
2022-08-19T11:12:53.969Z,4.38
2022-08-19T11:15:21.680Z,6.50
2022-08-19T11:17:50.743Z,6.88
2022-08-19T11:20:18.329Z,5.85
2022-08-19T11:22:45.734Z,4.60
2022-08-19T11:25:15.137Z,4.95
2022-08-19T11:27:44.159Z,4.33
2022-08-19T11:30:12.920Z,6.22
2022-08-19T11:32:44.466Z,4.38
2022-08-19T11:35:16.818Z,5.45
2022-08-19T11:37:44.224Z,4.93
2022-08-19T11:40:12.341Z,5.55
2022-08-19T11:42:57.822Z,5.35
2022-08-19T11:45:25.775Z,4.90
2022-08-19T11:47:53.405Z,5.90
2022-08-19T11:50:22.729Z,5.38
2022-08-19T11:52:50.630Z,5.55
2022-08-19T11:55:18.088Z,5.53
2022-08-19T11:57:45.499Z,4.90
2022-08-19T12:00:14.075Z,5.85
2022-08-19T12:02:41.693Z,5.38
2022-08-19T12:05:12.551Z,4.15
2022-08-19T12:07:44.636Z,4.70
2022-08-19T12:10:12.388Z,4.28
2022-08-19T12:12:43.318Z,4.05
2022-08-19T12:15:11.954Z,4.85
2022-08-19T12:17:39.624Z,8.40
2022-08-19T12:20:09.731Z,4.60
2022-08-19T12:22:37.428Z,5.60
2022-08-19T12:25:07.114Z,3.72
2022-08-19T12:27:40.306Z,3.85
2022-08-19T12:30:10.568Z,3.97
2022-08-19T12:32:38.031Z,4.15
2022-08-19T12:35:05.749Z,3.42
2022-08-19T12:37:33.534Z,4.45
2022-08-19T12:40:01.149Z,5.20
2022-08-19T13:02:18.467Z,4.57
2022-08-19T13:04:46.248Z,6.82
2022-08-19T13:07:13.628Z,4.87
2022-08-19T13:09:43.072Z,3.65
2022-08-19T14:36:39.437Z,1.90
2022-08-19T14:39:08.062Z,3.17
2022-08-19T14:51:27.416Z,2.55
2022-08-19T14:53:56.237Z,1.23
2022-08-19T14:58:52.398Z,2.55
2022-08-19T15:01:21.940Z,2.58
2022-08-19T15:03:49.705Z,2.00
2022-08-19T15:06:17.309Z,2.35
2022-08-19T15:08:45.801Z,2.20
2022-08-19T15:11:16.634Z,2.28
2022-08-19T15:13:44.786Z,1.52
2022-08-19T15:16:18.082Z,1.15
2022-08-19T15:18:46.457Z,1.58
2022-08-19T15:21:14.389Z,2.40
2022-08-19T15:23:41.871Z,1.58
2022-08-19T15:26:14.434Z,3.13
2022-08-19T15:28:44.134Z,1.80
2022-08-19T15:31:17.093Z,3.28
2022-08-19T15:33:56.995Z,1.80
2022-08-19T15:36:24.388Z,1.67
2022-08-19T15:38:53.163Z,2.03
2022-08-19T15:41:25.478Z,1.80
2022-08-19T15:43:54.507Z,1.65
2022-08-19T15:46:24.743Z,2.92
2022-08-19T15:48:56.165Z,1.83
2022-08-19T15:51:27.891Z,1.65
2022-08-19T15:53:55.554Z,3.47
2022-08-19T15:56:27.204Z,1.55
2022-08-19T15:59:12.632Z,2.72
2022-08-19T16:01:59.733Z,1.95
2022-08-19T16:04:44.620Z,2.17
2022-08-19T16:07:12.814Z,2.78
2022-08-19T16:09:40.310Z,4.65
2022-08-19T16:12:10.433Z,1.75
2022-08-19T16:14:39.101Z,0.93
2022-08-19T16:17:06.532Z,0.90
2022-08-19T16:19:33.912Z,1.13
2022-08-19T16:22:01.353Z,1.37
2022-08-19T16:24:29.005Z,1.05
2022-08-19T16:26:56.514Z,1.00
2022-08-19T16:29:34.877Z,1.05
2022-08-19T16:32:07.821Z,1.50
2022-08-19T16:34:35.249Z,1.83
2022-08-19T16:37:02.781Z,1.10
2022-08-19T16:39:30.282Z,1.10
2022-08-19T16:41:57.675Z,1.05
2022-08-19T16:44:27.480Z,1.23
2022-08-19T16:46:58.984Z,1.67
2022-08-19T16:49:53.437Z,1.83
2022-08-19T16:52:14.731Z,1.48
2022-08-19T16:54:43.619Z,2.35
2022-08-19T16:57:11.745Z,2.75
2022-08-19T16:59:48.087Z,2.38
2022-08-19T17:02:16.560Z,1.70
2022-08-19T17:04:43.939Z,2.35
2022-08-19T18:13:44.994Z,3.10
2022-08-19T19:41:06.984Z,10.27
2022-08-19T19:43:40.838Z,9.23
2022-08-19T19:46:09.031Z,6.60
2022-08-19T19:48:36.878Z,8.38
2022-08-19T19:51:04.459Z,6.22
2022-08-19T19:53:33.749Z,4.45
2022-08-19T19:58:35.562Z,6.15
2022-08-19T20:01:09.585Z,8.32
2022-08-19T20:03:37.262Z,8.15
2022-08-19T20:06:04.765Z,6.78
2022-08-19T20:08:49.616Z,8.02
2022-08-19T20:11:26.688Z,9.68
2022-08-19T20:13:55.439Z,5.28
2022-08-19T20:16:25.255Z,5.53
2022-08-19T20:18:52.974Z,6.30
2022-08-19T20:21:23.537Z,6.15
2022-08-19T20:24:08.739Z,6.18
2022-08-19T20:26:37.516Z,9.73
2022-08-19T20:29:13.646Z,6.53
2022-08-19T20:34:25.523Z,8.27
2022-08-19T20:36:52.973Z,6.88
2022-08-19T20:39:20.386Z,6.75
2022-08-19T20:41:48.685Z,6.72
2022-08-19T20:44:17.405Z,5.55
2022-08-19T20:46:54.278Z,7.57
2022-08-19T20:49:27.495Z,5.20
2022-08-19T20:51:55.328Z,5.07
2022-08-19T20:54:22.763Z,5.18
2022-08-19T20:56:51.050Z,8.02
2022-08-19T20:59:20.029Z,4.57
2022-08-19T21:01:47.733Z,4.90
2022-08-19T21:04:15.409Z,6.18
2022-08-19T21:06:45.566Z,5.28
2022-08-19T21:09:13.638Z,6.32
2022-08-19T21:11:41.063Z,6.43
2022-08-19T21:14:08.708Z,5.07
2022-08-19T21:16:37.483Z,5.95
2022-08-19T21:19:05.112Z,4.95
2022-08-19T21:21:33.014Z,6.97
2022-08-19T21:24:01.200Z,5.85
2022-08-19T21:26:28.943Z,4.78
2022-08-19T21:28:56.359Z,7.10
2022-08-19T21:31:23.765Z,6.43
2022-08-19T21:33:52.742Z,4.47
2022-08-19T21:36:20.337Z,7.45
2022-08-19T21:38:47.748Z,7.93
2022-08-19T21:41:15.188Z,5.70
2022-08-19T21:43:42.769Z,4.05
2022-08-19T21:46:10.268Z,4.78
2022-08-19T21:48:37.795Z,6.88
2022-08-19T21:51:06.658Z,4.88
2022-08-19T21:53:34.768Z,4.30
2022-08-19T21:56:02.402Z,5.15
2022-08-19T21:58:30.813Z,6.75
2022-08-19T22:00:58.451Z,6.00
2022-08-19T22:03:26.202Z,3.83
2022-08-19T22:05:53.624Z,6.05
2022-08-19T22:08:22.422Z,6.20
2022-08-19T22:10:50.050Z,8.27
2022-08-19T22:13:18.350Z,6.57
2022-08-19T22:15:45.863Z,6.13
2022-08-19T22:18:13.581Z,4.15
2022-08-19T22:20:40.976Z,5.85
2022-08-19T22:23:08.424Z,6.80
2022-08-19T22:25:37.959Z,5.93
2022-08-19T22:30:33.646Z,6.60
2022-08-19T22:33:02.897Z,6.00
2022-08-19T22:35:31.491Z,5.22
2022-08-19T22:37:59.491Z,4.13
2022-08-19T22:40:27.769Z,5.57
2022-08-19T22:43:00.014Z,2.63
2022-08-19T22:47:54.937Z,4.80
2022-08-19T22:50:22.578Z,9.52
2022-08-19T22:52:52.186Z,6.63
2022-08-19T22:55:19.856Z,7.07
2022-08-19T22:57:47.814Z,6.35
2022-08-19T23:00:17.585Z,7.40
2022-08-19T23:02:51.898Z,6.75
2022-08-19T23:05:21.985Z,4.88
2022-08-19T23:07:52.386Z,6.20
2022-08-19T23:10:27.248Z,5.22
2022-08-19T23:12:56.279Z,4.87
2022-08-19T23:15:26.582Z,4.57
2022-08-19T23:17:54.904Z,6.80
2022-08-19T23:20:26.948Z,5.90
2022-08-19T23:22:55.246Z,5.65
2022-08-19T23:25:24.684Z,7.47
2022-08-19T23:28:09.863Z,7.35
2022-08-19T23:30:40.981Z,7.45
2022-08-19T23:33:14.806Z,6.60
2022-08-19T23:35:42.247Z,7.80
2022-08-19T23:38:09.969Z,6.55
2022-08-19T23:40:38.432Z,7.30
2022-08-19T23:43:07.933Z,6.25
2022-08-19T23:45:38.195Z,5.43
2022-08-19T23:48:07.521Z,8.18
2022-08-19T23:50:35.792Z,6.38
2022-08-19T23:53:03.604Z,6.82
2022-08-19T23:55:33.105Z,7.90
2022-08-19T23:58:00.836Z,6.83
